Swinoujscie, Poland
Current Conditions -  °F | °C
As of 5:50 PM on Saturday 22 Nov 2014 (Local Time) from EDAH Reporting Station
Broken Clouds Broken Clouds  
Wind Chill: 36°   Ceiling: 2600
Heat Index: 43°   Visibility: 6mi
Dew Point: 36°   Wind: 14mph
Humidity: 76%   Direction: 140°SE
Pressure: 30.27"   Gusts: NA
Location:  53.91°N, 14.25°E
Report Text: EDAH 221550Z 14012KT 9999 BKN026 06/02 Q1025
Loading
Personal Weather Stations






























Interactive Weather Map New forecast layout! Learn more

10-Day Weather Forecast

Advertisements
Track Severe Weather on mobile